Arvilla, North Dakota
Current Conditions -  °F | °C
As of 8:58 PM on Friday 24 Oct 2014 (Local Time) from KRDR Reporting Station
Clear Clear  
Wind Chill: 55°   Ceiling: Unl
Heat Index: 55°   Visibility: 10mi
Dew Point: 34°   Wind: 10mph
Humidity: 46%   Direction: 310°NW
Pressure: 29.86"   Gusts: NA
Location:  47.92°N, 97.49°W
Report Text: KRDR 250158Z AUTO 31009KT 10SM CLR 13/01 A2986 RMK AO2 SLP119 T01250012
Loading
Personal Weather Stations






























Interactive Weather Map
Tropical Storm Tracking
New forecast layout! Learn more

10-Day Weather Forecast

Advertisements
Track Severe Weather on mobile